sensor_id;sensor_type;location;lat;lon;timestamp;P1;durP1;ratioP1;P2;durP2;ratioP2
2061;SDS011;11070;51.336;12.340;2022-09-09T00:02:08;3.83;;;3.47;;
2061;SDS011;11070;51.336;12.340;2022-09-09T00:04:59;5.82;;;3.50;;
2061;SDS011;11070;51.336;12.340;2022-09-09T00:07:49;3.72;;;3.33;;
2061;SDS011;11070;51.336;12.340;2022-09-09T00:15:38;4.30;;;3.63;;
2061;SDS011;11070;51.336;12.340;2022-09-09T00:18:33;5.13;;;3.30;;
2061;SDS011;11070;51.336;12.340;2022-09-09T00:21:17;5.93;;;3.50;;
2061;SDS011;11070;51.336;12.340;2022-09-09T00:23:50;4.07;;;3.60;;
2061;SDS011;11070;51.336;12.340;2022-09-09T00:26:35;3.80;;;3.42;;
2061;SDS011;11070;51.336;12.340;2022-09-09T00:31:37;3.83;;;3.53;;
2061;SDS011;11070;51.336;12.340;2022-09-09T00:36:38;3.38;;;3.17;;
2061;SDS011;11070;51.336;12.340;2022-09-09T00:39:04;3.50;;;3.20;;
2061;SDS011;11070;51.336;12.340;2022-09-09T00:52:40;3.45;;;3.25;;
2061;SDS011;11070;51.336;12.340;2022-09-09T00:59:32;4.15;;;3.50;;
2061;SDS011;11070;51.336;12.340;2022-09-09T01:01:52;3.20;;;2.90;;
2061;SDS011;11070;51.336;12.340;2022-09-09T01:04:22;3.20;;;3.00;;
2061;SDS011;11070;51.336;12.340;2022-09-09T01:07:00;3.58;;;3.28;;
2061;SDS011;11070;51.336;12.340;2022-09-09T01:09:42;6.13;;;3.30;;
2061;SDS011;11070;51.336;12.340;2022-09-09T01:14:57;3.17;;;2.92;;
2061;SDS011;11070;51.336;12.340;2022-09-09T01:17:31;3.47;;;2.83;;
2061;SDS011;11070;51.336;12.340;2022-09-09T01:20:24;3.05;;;2.85;;
2061;SDS011;11070;51.336;12.340;2022-09-09T01:23:04;6.20;;;3.50;;
2061;SDS011;11070;51.336;12.340;2022-09-09T01:28:35;2.97;;;2.65;;
2061;SDS011;11070;51.336;12.340;2022-09-09T01:31:03;3.28;;;2.95;;
2061;SDS011;11070;51.336;12.340;2022-09-09T01:33:31;3.40;;;3.20;;
2061;SDS011;11070;51.336;12.340;2022-09-09T01:36:02;3.58;;;3.05;;
2061;SDS011;11070;51.336;12.340;2022-09-09T01:38:32;3.50;;;3.20;;
2061;SDS011;11070;51.336;12.340;2022-09-09T01:41:00;4.78;;;2.95;;
2061;SDS011;11070;51.336;12.340;2022-09-09T01:43:26;3.23;;;3.00;;
2061;SDS011;11070;51.336;12.340;2022-09-09T01:45:53;3.08;;;2.88;;
2061;SDS011;11070;51.336;12.340;2022-09-09T01:48:23;3.65;;;3.03;;
2061;SDS011;11070;51.336;12.340;2022-09-09T01:50:49;3.08;;;2.88;;
2061;SDS011;11070;51.336;12.340;2022-09-09T01:53:16;3.30;;;2.73;;
2061;SDS011;11070;51.336;12.340;2022-09-09T01:55:45;3.90;;;3.20;;
2061;SDS011;11070;51.336;12.340;2022-09-09T01:58:24;3.85;;;3.03;;
2061;SDS011;11070;51.336;12.340;2022-09-09T02:01:16;5.05;;;3.25;;
2061;SDS011;11070;51.336;12.340;2022-09-09T02:04:04;3.30;;;3.00;;
2061;SDS011;11070;51.336;12.340;2022-09-09T02:06:40;5.75;;;2.92;;
2061;SDS011;11070;51.336;12.340;2022-09-09T02:09:09;3.25;;;3.05;;
2061;SDS011;11070;51.336;12.340;2022-09-09T02:11:37;3.55;;;3.20;;
2061;SDS011;11070;51.336;12.340;2022-09-09T02:14:08;3.47;;;3.17;;
2061;SDS011;11070;51.336;12.340;2022-09-09T02:16:44;3.70;;;2.80;;
2061;SDS011;11070;51.336;12.340;2022-09-09T02:21:53;5.20;;;3.22;;
2061;SDS011;11070;51.336;12.340;2022-09-09T02:24:20;4.20;;;3.40;;
2061;SDS011;11070;51.336;12.340;2022-09-09T02:26:48;3.75;;;2.88;;
2061;SDS011;11070;51.336;12.340;2022-09-09T02:29:28;3.53;;;3.20;;
2061;SDS011;11070;51.336;12.340;2022-09-09T02:31:58;8.20;;;3.50;;
2061;SDS011;11070;51.336;12.340;2022-09-09T02:34:28;3.47;;;3.17;;
2061;SDS011;11070;51.336;12.340;2022-09-09T02:36:55;3.40;;;3.10;;
2061;SDS011;11070;51.336;12.340;2022-09-09T02:39:24;3.45;;;3.08;;
2061;SDS011;11070;51.336;12.340;2022-09-09T02:41:50;2.90;;;2.77;;
2061;SDS011;11070;51.336;12.340;2022-09-09T02:44:17;3.07;;;2.77;;
2061;SDS011;11070;51.336;12.340;2022-09-09T02:46:54;3.63;;;2.88;;
2061;SDS011;11070;51.336;12.340;2022-09-09T02:52:22;4.05;;;2.90;;
2061;SDS011;11070;51.336;12.340;2022-09-09T02:58:03;3.13;;;2.92;;
2061;SDS011;11070;51.336;12.340;2022-09-09T03:00:32;3.28;;;3.08;;
2061;SDS011;11070;51.336;12.340;2022-09-09T03:03:00;3.58;;;3.28;;
2061;SDS011;11070;51.336;12.340;2022-09-09T03:05:27;3.53;;;2.90;;
2061;SDS011;11070;51.336;12.340;2022-09-09T03:07:53;3.97;;;3.10;;
2061;SDS011;11070;51.336;12.340;2022-09-09T03:10:18;3.00;;;2.70;;
2061;SDS011;11070;51.336;12.340;2022-09-09T03:12:44;3.57;;;3.27;;
2061;SDS011;11070;51.336;12.340;2022-09-09T03:15:09;3.20;;;2.90;;
2061;SDS011;11070;51.336;12.340;2022-09-09T03:17:35;3.45;;;2.75;;
2061;SDS011;11070;51.336;12.340;2022-09-09T03:20:04;3.50;;;3.20;;
2061;SDS011;11070;51.336;12.340;2022-09-09T03:22:30;3.20;;;2.90;;
2061;SDS011;11070;51.336;12.340;2022-09-09T03:24:56;3.40;;;3.10;;
2061;SDS011;11070;51.336;12.340;2022-09-09T03:27:21;3.40;;;3.10;;
2061;SDS011;11070;51.336;12.340;2022-09-09T03:29:47;4.03;;;2.50;;
2061;SDS011;11070;51.336;12.340;2022-09-09T03:32:16;2.72;;;2.53;;
2061;SDS011;11070;51.336;12.340;2022-09-09T03:34:42;3.38;;;2.97;;
2061;SDS011;11070;51.336;12.340;2022-09-09T03:37:08;2.83;;;2.63;;
2061;SDS011;11070;51.336;12.340;2022-09-09T03:39:34;3.70;;;3.30;;
2061;SDS011;11070;51.336;12.340;2022-09-09T03:41:59;5.53;;;3.10;;
2061;SDS011;11070;51.336;12.340;2022-09-09T03:44:28;2.80;;;2.60;;
2061;SDS011;11070;51.336;12.340;2022-09-09T03:46:55;3.00;;;2.80;;
2061;SDS011;11070;51.336;12.340;2022-09-09T03:49:20;4.13;;;3.60;;
2061;SDS011;11070;51.336;12.340;2022-09-09T03:51:47;3.25;;;2.95;;
2061;SDS011;11070;51.336;12.340;2022-09-09T03:54:12;7.40;;;3.27;;
2061;SDS011;11070;51.336;12.340;2022-09-09T03:56:38;2.97;;;2.70;;
2061;SDS011;11070;51.336;12.340;2022-09-09T03:59:06;8.50;;;3.00;;
2061;SDS011;11070;51.336;12.340;2022-09-09T04:01:33;4.63;;;3.15;;
2061;SDS011;11070;51.336;12.340;2022-09-09T04:03:59;4.20;;;3.20;;
2061;SDS011;11070;51.336;12.340;2022-09-09T04:06:27;3.67;;;3.35;;
2061;SDS011;11070;51.336;12.340;2022-09-09T04:08:53;4.00;;;3.07;;
2061;SDS011;11070;51.336;12.340;2022-09-09T04:11:18;3.40;;;2.77;;
2061;SDS011;11070;51.336;12.340;2022-09-09T04:13:44;3.88;;;2.75;;
2061;SDS011;11070;51.336;12.340;2022-09-09T04:16:10;3.73;;;3.43;;
2061;SDS011;11070;51.336;12.340;2022-09-09T04:18:38;2.85;;;2.65;;
2061;SDS011;11070;51.336;12.340;2022-09-09T04:21:03;9.43;;;3.23;;
2061;SDS011;11070;51.336;12.340;2022-09-09T04:23:31;3.97;;;3.58;;
2061;SDS011;11070;51.336;12.340;2022-09-09T04:25:58;4.82;;;2.90;;
2061;SDS011;11070;51.336;12.340;2022-09-09T04:28:25;3.60;;;2.60;;
2061;SDS011;11070;51.336;12.340;2022-09-09T04:31:08;3.17;;;2.97;;
2061;SDS011;11070;51.336;12.340;2022-09-09T04:33:36;5.03;;;3.00;;
2061;SDS011;11070;51.336;12.340;2022-09-09T04:36:03;4.10;;;2.97;;
2061;SDS011;11070;51.336;12.340;2022-09-09T04:38:29;3.40;;;3.10;;
2061;SDS011;11070;51.336;12.340;2022-09-09T04:40:55;5.57;;;3.00;;
2061;SDS011;11070;51.336;12.340;2022-09-09T04:43:20;3.40;;;3.10;;
2061;SDS011;11070;51.336;12.340;2022-09-09T04:45:48;3.42;;;3.20;;
2061;SDS011;11070;51.336;12.340;2022-09-09T04:48:14;3.40;;;3.20;;
2061;SDS011;11070;51.336;12.340;2022-09-09T04:50:40;3.40;;;3.13;;
2061;SDS011;11070;51.336;12.340;2022-09-09T04:53:06;3.23;;;2.93;;
2061;SDS011;11070;51.336;12.340;2022-09-09T04:55:32;6.15;;;3.33;;
2061;SDS011;11070;51.336;12.340;2022-09-09T04:58:06;4.68;;;3.38;;
2061;SDS011;11070;51.336;12.340;2022-09-09T05:00:33;4.22;;;3.22;;
2061;SDS011;11070;51.336;12.340;2022-09-09T05:03:03;2.65;;;2.45;;
2061;SDS011;11070;51.336;12.340;2022-09-09T05:05:30;3.95;;;2.72;;
2061;SDS011;11070;51.336;12.340;2022-09-09T05:08:05;5.80;;;3.42;;
2061;SDS011;11070;51.336;12.340;2022-09-09T05:10:33;3.15;;;2.85;;
2061;SDS011;11070;51.336;12.340;2022-09-09T05:13:01;3.35;;;3.05;;
2061;SDS011;11070;51.336;12.340;2022-09-09T05:15:26;4.00;;;2.90;;
2061;SDS011;11070;51.336;12.340;2022-09-09T05:17:52;5.80;;;2.87;;
2061;SDS011;11070;51.336;12.340;2022-09-09T05:20:21;5.28;;;2.50;;
2061;SDS011;11070;51.336;12.340;2022-09-09T05:22:47;4.07;;;2.90;;
2061;SDS011;11070;51.336;12.340;2022-09-09T05:25:12;4.70;;;2.73;;
2061;SDS011;11070;51.336;12.340;2022-09-09T05:27:38;2.70;;;2.50;;
2061;SDS011;11070;51.336;12.340;2022-09-09T05:30:04;2.97;;;2.77;;
2061;SDS011;11070;51.336;12.340;2022-09-09T05:32:30;2.90;;;2.60;;
2061;SDS011;11070;51.336;12.340;2022-09-09T05:34:59;2.88;;;2.50;;
2061;SDS011;11070;51.336;12.340;2022-09-09T05:37:24;3.23;;;2.60;;
2061;SDS011;11070;51.336;12.340;2022-09-09T05:39:50;3.10;;;2.37;;
2061;SDS011;11070;51.336;12.340;2022-09-09T05:42:15;8.73;;;2.83;;
2061;SDS011;11070;51.336;12.340;2022-09-09T05:44:42;3.05;;;2.75;;
2061;SDS011;11070;51.336;12.340;2022-09-09T05:47:07;3.13;;;2.33;;
2061;SDS011;11070;51.336;12.340;2022-09-09T05:49:34;2.20;;;2.00;;
2061;SDS011;11070;51.336;12.340;2022-09-09T05:52:00;3.07;;;2.63;;
2061;SDS011;11070;51.336;12.340;2022-09-09T05:54:25;3.70;;;2.10;;
2061;SDS011;11070;51.336;12.340;2022-09-09T05:56:51;3.33;;;3.03;;
2061;SDS011;11070;51.336;12.340;2022-09-09T05:59:18;5.00;;;2.33;;
2061;SDS011;11070;51.336;12.340;2022-09-09T06:01:44;2.60;;;2.40;;
2061;SDS011;11070;51.336;12.340;2022-09-09T06:04:10;3.73;;;2.30;;
2061;SDS011;11070;51.336;12.340;2022-09-09T06:06:36;4.57;;;2.20;;
2061;SDS011;11070;51.336;12.340;2022-09-09T06:09:05;3.45;;;2.30;;
2061;SDS011;11070;51.336;12.340;2022-09-09T06:11:35;3.70;;;2.30;;
2061;SDS011;11070;51.336;12.340;2022-09-09T06:14:05;4.05;;;2.60;;
2061;SDS011;11070;51.336;12.340;2022-09-09T06:16:31;2.30;;;2.10;;
2061;SDS011;11070;51.336;12.340;2022-09-09T06:18:58;3.08;;;2.40;;
2061;SDS011;11070;51.336;12.340;2022-09-09T06:21:29;2.92;;;2.38;;
2061;SDS011;11070;51.336;12.340;2022-09-09T06:23:56;2.22;;;1.95;;
2061;SDS011;11070;51.336;12.340;2022-09-09T06:26:23;2.05;;;1.95;;
2061;SDS011;11070;51.336;12.340;2022-09-09T06:28:51;2.20;;;2.00;;
2061;SDS011;11070;51.336;12.340;2022-09-09T06:31:20;2.67;;;2.17;;
2061;SDS011;11070;51.336;12.340;2022-09-09T06:33:47;2.40;;;2.00;;
2061;SDS011;11070;51.336;12.340;2022-09-09T06:38:41;2.30;;;2.10;;
2061;SDS011;11070;51.336;12.340;2022-09-09T06:41:08;5.22;;;2.38;;
2061;SDS011;11070;51.336;12.340;2022-09-09T06:43:35;5.90;;;2.65;;
2061;SDS011;11070;51.336;12.340;2022-09-09T06:46:05;3.67;;;2.00;;
2061;SDS011;11070;51.336;12.340;2022-09-09T06:48:36;3.15;;;2.10;;
2061;SDS011;11070;51.336;12.340;2022-09-09T06:51:03;2.83;;;2.53;;
2061;SDS011;11070;51.336;12.340;2022-09-09T06:53:31;2.17;;;1.70;;
2061;SDS011;11070;51.336;12.340;2022-09-09T06:55:58;2.58;;;2.08;;
2061;SDS011;11070;51.336;12.340;2022-09-09T06:58:42;3.05;;;1.95;;
2061;SDS011;11070;51.336;12.340;2022-09-09T07:01:09;6.07;;;2.22;;
2061;SDS011;11070;51.336;12.340;2022-09-09T07:03:39;2.63;;;2.20;;
2061;SDS011;11070;51.336;12.340;2022-09-09T07:06:06;3.80;;;2.10;;
2061;SDS011;11070;51.336;12.340;2022-09-09T07:08:32;4.03;;;2.10;;
2061;SDS011;11070;51.336;12.340;2022-09-09T07:11:05;2.10;;;1.95;;
2061;SDS011;11070;51.336;12.340;2022-09-09T07:13:33;2.15;;;1.90;;
2061;SDS011;11070;51.336;12.340;2022-09-09T07:16:09;3.78;;;1.90;;
2061;SDS011;11070;51.336;12.340;2022-09-09T07:18:40;1.73;;;1.63;;
2061;SDS011;11070;51.336;12.340;2022-09-09T07:21:06;3.03;;;1.60;;
2061;SDS011;11070;51.336;12.340;2022-09-09T07:23:34;1.85;;;1.63;;
2061;SDS011;11070;51.336;12.340;2022-09-09T07:26:06;2.30;;;2.08;;
2061;SDS011;11070;51.336;12.340;2022-09-09T07:28:35;3.35;;;1.60;;
2061;SDS011;11070;51.336;12.340;2022-09-09T07:31:02;4.13;;;1.65;;
2061;SDS011;11070;51.336;12.340;2022-09-09T07:33:28;5.53;;;1.70;;
2061;SDS011;11070;51.336;12.340;2022-09-09T07:36:02;3.63;;;1.55;;
2061;SDS011;11070;51.336;12.340;2022-09-09T07:38:43;3.55;;;1.73;;
2061;SDS011;11070;51.336;12.340;2022-09-09T07:41:14;1.63;;;1.50;;
2061;SDS011;11070;51.336;12.340;2022-09-09T07:43:43;2.15;;;2.05;;
2061;SDS011;11070;51.336;12.340;2022-09-09T07:46:11;3.85;;;1.52;;
2061;SDS011;11070;51.336;12.340;2022-09-09T07:48:48;3.70;;;1.63;;
2061;SDS011;11070;51.336;12.340;2022-09-09T07:51:25;1.90;;;1.80;;
2061;SDS011;11070;51.336;12.340;2022-09-09T07:53:58;3.28;;;1.90;;
2061;SDS011;11070;51.336;12.340;2022-09-09T07:56:25;3.67;;;2.30;;
2061;SDS011;11070;51.336;12.340;2022-09-09T07:58:52;4.03;;;1.83;;
2061;SDS011;11070;51.336;12.340;2022-09-09T08:02:01;3.13;;;1.85;;
2061;SDS011;11070;51.336;12.340;2022-09-09T08:04:10;4.18;;;1.92;;
2061;SDS011;11070;51.336;12.340;2022-09-09T08:06:43;2.20;;;1.70;;
2061;SDS011;11070;51.336;12.340;2022-09-09T08:09:11;2.90;;;1.95;;
2061;SDS011;11070;51.336;12.340;2022-09-09T08:11:37;3.97;;;1.73;;
2061;SDS011;11070;51.336;12.340;2022-09-09T08:14:04;2.45;;;2.05;;
2061;SDS011;11070;51.336;12.340;2022-09-09T08:16:33;2.55;;;1.60;;
2061;SDS011;11070;51.336;12.340;2022-09-09T08:19:01;5.70;;;2.05;;
2061;SDS011;11070;51.336;12.340;2022-09-09T08:21:29;1.95;;;1.80;;
2061;SDS011;11070;51.336;12.340;2022-09-09T08:23:57;2.25;;;1.73;;
2061;SDS011;11070;51.336;12.340;2022-09-09T08:26:24;5.47;;;2.08;;
2061;SDS011;11070;51.336;12.340;2022-09-09T08:28:53;4.13;;;2.28;;
2061;SDS011;11070;51.336;12.340;2022-09-09T08:31:31;2.65;;;1.63;;
2061;SDS011;11070;51.336;12.340;2022-09-09T08:33:57;1.75;;;1.65;;
2061;SDS011;11070;51.336;12.340;2022-09-09T08:36:28;3.58;;;1.50;;
2061;SDS011;11070;51.336;12.340;2022-09-09T08:38:57;2.63;;;1.80;;
2061;SDS011;11070;51.336;12.340;2022-09-09T08:52:54;3.40;;;1.83;;
2061;SDS011;11070;51.336;12.340;2022-09-09T08:55:45;3.40;;;1.20;;
2061;SDS011;11070;51.336;12.340;2022-09-09T09:11:49;2.93;;;1.53;;
2061;SDS011;11070;51.336;12.340;2022-09-09T09:17:00;2.50;;;1.30;;
2061;SDS011;11070;51.336;12.340;2022-09-09T09:19:34;2.30;;;1.10;;
2061;SDS011;11070;51.336;12.340;2022-09-09T09:30:42;2.87;;;1.43;;
2061;SDS011;11070;51.336;12.340;2022-09-09T09:33:16;3.10;;;1.27;;
2061;SDS011;11070;51.336;12.340;2022-09-09T09:35:48;3.17;;;1.10;;
2061;SDS011;11070;51.336;12.340;2022-09-09T09:38:19;2.40;;;1.20;;
2061;SDS011;11070;51.336;12.340;2022-09-09T09:41:05;3.80;;;1.47;;
2061;SDS011;11070;51.336;12.340;2022-09-09T09:43:35;2.57;;;1.27;;
2061;SDS011;11070;51.336;12.340;2022-09-09T09:46:04;1.20;;;0.97;;
2061;SDS011;11070;51.336;12.340;2022-09-09T09:48:30;1.67;;;1.17;;
2061;SDS011;11070;51.336;12.340;2022-09-09T09:51:08;3.37;;;1.20;;
2061;SDS011;11070;51.336;12.340;2022-09-09T09:53:37;3.20;;;1.37;;
2061;SDS011;11070;51.336;12.340;2022-09-09T09:56:05;1.50;;;1.30;;
2061;SDS011;11070;51.336;12.340;2022-09-09T10:01:21;2.50;;;1.40;;
2061;SDS011;11070;51.336;12.340;2022-09-09T10:04:00;2.70;;;1.43;;
2061;SDS011;11070;51.336;12.340;2022-09-09T10:06:34;4.07;;;1.33;;
2061;SDS011;11070;51.336;12.340;2022-09-09T10:09:03;3.03;;;1.40;;
2061;SDS011;11070;51.336;12.340;2022-09-09T10:19:40;1.93;;;1.70;;
2061;SDS011;11070;51.336;12.340;2022-09-09T10:22:28;2.30;;;1.90;;
2061;SDS011;11070;51.336;12.340;2022-09-09T10:25:04;1.77;;;1.40;;
2061;SDS011;11070;51.336;12.340;2022-09-09T10:33:44;2.67;;;1.30;;
2061;SDS011;11070;51.336;12.340;2022-09-09T10:36:25;1.40;;;1.30;;
2061;SDS011;11070;51.336;12.340;2022-09-09T10:39:04;1.37;;;1.27;;
2061;SDS011;11070;51.336;12.340;2022-09-09T10:41:42;1.93;;;1.57;;
2061;SDS011;11070;51.336;12.340;2022-09-09T10:53:00;3.90;;;1.70;;
2061;SDS011;11070;51.336;12.340;2022-09-09T10:55:40;3.58;;;2.00;;
2061;SDS011;11070;51.336;12.340;2022-09-09T10:58:10;2.03;;;1.20;;
2061;SDS011;11070;51.336;12.340;2022-09-09T11:00:52;1.53;;;1.43;;
2061;SDS011;11070;51.336;12.340;2022-09-09T11:03:23;1.80;;;1.30;;
2061;SDS011;11070;51.336;12.340;2022-09-09T11:08:29;2.10;;;1.30;;
2061;SDS011;11070;51.336;12.340;2022-09-09T11:11:12;2.17;;;1.50;;
2061;SDS011;11070;51.336;12.340;2022-09-09T11:16:25;7.07;;;1.90;;
2061;SDS011;11070;51.336;12.340;2022-09-09T11:19:01;2.17;;;1.53;;
2061;SDS011;11070;51.336;12.340;2022-09-09T11:21:46;2.10;;;1.70;;
2061;SDS011;11070;51.336;12.340;2022-09-09T11:24:28;3.20;;;1.40;;
2061;SDS011;11070;51.336;12.340;2022-09-09T11:27:01;1.93;;;1.37;;
2061;SDS011;11070;51.336;12.340;2022-09-09T11:29:57;4.70;;;1.40;;
2061;SDS011;11070;51.336;12.340;2022-09-09T11:40:18;2.57;;;1.23;;
2061;SDS011;11070;51.336;12.340;2022-09-09T11:42:48;2.30;;;1.40;;
2061;SDS011;11070;51.336;12.340;2022-09-09T11:45:24;3.43;;;1.33;;
2061;SDS011;11070;51.336;12.340;2022-09-09T11:47:57;3.27;;;1.30;;
2061;SDS011;11070;51.336;12.340;2022-09-09T11:52:49;2.80;;;1.33;;
2061;SDS011;11070;51.336;12.340;2022-09-09T11:58:01;1.70;;;1.03;;
2061;SDS011;11070;51.336;12.340;2022-09-09T12:00:41;4.07;;;1.00;;
2061;SDS011;11070;51.336;12.340;2022-09-09T12:05:59;2.83;;;1.23;;
2061;SDS011;11070;51.336;12.340;2022-09-09T12:08:34;3.20;;;1.47;;
2061;SDS011;11070;51.336;12.340;2022-09-09T12:11:01;2.40;;;1.30;;
2061;SDS011;11070;51.336;12.340;2022-09-09T12:13:29;1.70;;;1.50;;
2061;SDS011;11070;51.336;12.340;2022-09-09T12:15:57;3.13;;;1.47;;
2061;SDS011;11070;51.336;12.340;2022-09-09T12:18:25;4.30;;;1.30;;
2061;SDS011;11070;51.336;12.340;2022-09-09T12:21:06;3.40;;;1.30;;
2061;SDS011;11070;51.336;12.340;2022-09-09T12:23:50;2.47;;;1.47;;
2061;SDS011;11070;51.336;12.340;2022-09-09T12:34:30;1.60;;;1.43;;
2061;SDS011;11070;51.336;12.340;2022-09-09T12:37:14;2.67;;;1.50;;
2061;SDS011;11070;51.336;12.340;2022-09-09T12:40:05;2.03;;;1.00;;
2061;SDS011;11070;51.336;12.340;2022-09-09T12:42:43;1.50;;;1.13;;
2061;SDS011;11070;51.336;12.340;2022-09-09T12:45:19;1.57;;;1.07;;
2061;SDS011;11070;51.336;12.340;2022-09-09T12:47:56;2.83;;;1.10;;
2061;SDS011;11070;51.336;12.340;2022-09-09T12:53:03;2.73;;;1.20;;
2061;SDS011;11070;51.336;12.340;2022-09-09T12:55:35;2.73;;;1.20;;
2061;SDS011;11070;51.336;12.340;2022-09-09T12:58:03;1.80;;;1.27;;
2061;SDS011;11070;51.336;12.340;2022-09-09T13:00:31;4.23;;;1.27;;
2061;SDS011;11070;51.336;12.340;2022-09-09T13:02:59;3.93;;;1.10;;
2061;SDS011;11070;51.336;12.340;2022-09-09T13:05:28;1.10;;;0.90;;
2061;SDS011;11070;51.336;12.340;2022-09-09T13:08:04;2.00;;;1.23;;
2061;SDS011;11070;51.336;12.340;2022-09-09T13:10:33;2.47;;;1.00;;
2061;SDS011;11070;51.336;12.340;2022-09-09T13:13:23;1.33;;;1.00;;
2061;SDS011;11070;51.336;12.340;2022-09-09T13:15:58;1.87;;;0.97;;
2061;SDS011;11070;51.336;12.340;2022-09-09T13:18:29;2.50;;;1.20;;
2061;SDS011;11070;51.336;12.340;2022-09-09T13:21:04;1.87;;;1.03;;
2061;SDS011;11070;51.336;12.340;2022-09-09T13:23:31;2.37;;;1.10;;
2061;SDS011;11070;51.336;12.340;2022-09-09T13:26:00;3.70;;;1.17;;
2061;SDS011;11070;51.336;12.340;2022-09-09T13:28:29;2.30;;;1.10;;
2061;SDS011;11070;51.336;12.340;2022-09-09T13:30:56;2.07;;;1.23;;
2061;SDS011;11070;51.336;12.340;2022-09-09T13:33:36;1.60;;;1.13;;
2061;SDS011;11070;51.336;12.340;2022-09-09T13:38:29;2.77;;;1.23;;
2061;SDS011;11070;51.336;12.340;2022-09-09T13:40:59;1.80;;;1.00;;
2061;SDS011;11070;51.336;12.340;2022-09-09T13:43:28;1.83;;;1.30;;
2061;SDS011;11070;51.336;12.340;2022-09-09T13:45:56;1.90;;;1.13;;
2061;SDS011;11070;51.336;12.340;2022-09-09T13:48:27;5.20;;;1.70;;
2061;SDS011;11070;51.336;12.340;2022-09-09T13:50:59;2.27;;;1.40;;
2061;SDS011;11070;51.336;12.340;2022-09-09T13:53:29;2.45;;;1.10;;
2061;SDS011;11070;51.336;12.340;2022-09-09T13:55:55;2.30;;;1.40;;
2061;SDS011;11070;51.336;12.340;2022-09-09T13:58:21;2.38;;;1.27;;
2061;SDS011;11070;51.336;12.340;2022-09-09T14:00:48;3.17;;;1.52;;
2061;SDS011;11070;51.336;12.340;2022-09-09T14:03:14;2.45;;;1.13;;
2061;SDS011;11070;51.336;12.340;2022-09-09T14:05:40;1.67;;;0.80;;
2061;SDS011;11070;51.336;12.340;2022-09-09T14:08:07;2.60;;;1.10;;
2061;SDS011;11070;51.336;12.340;2022-09-09T14:10:48;3.47;;;1.20;;
2061;SDS011;11070;51.336;12.340;2022-09-09T14:13:13;2.13;;;0.97;;
2061;SDS011;11070;51.336;12.340;2022-09-09T14:15:40;1.95;;;1.00;;
2061;SDS011;11070;51.336;12.340;2022-09-09T14:18:08;1.60;;;0.90;;
2061;SDS011;11070;51.336;12.340;2022-09-09T14:20:36;4.95;;;1.25;;
2061;SDS011;11070;51.336;12.340;2022-09-09T14:23:02;3.55;;;1.20;;
2061;SDS011;11070;51.336;12.340;2022-09-09T14:25:28;2.53;;;1.20;;
2061;SDS011;11070;51.336;12.340;2022-09-09T14:27:53;2.57;;;1.20;;
2061;SDS011;11070;51.336;12.340;2022-09-09T14:30:21;2.22;;;0.80;;
2061;SDS011;11070;51.336;12.340;2022-09-09T14:32:46;2.70;;;1.17;;
2061;SDS011;11070;51.336;12.340;2022-09-09T14:35:12;3.23;;;1.10;;
2061;SDS011;11070;51.336;12.340;2022-09-09T14:37:37;2.77;;;0.93;;
2061;SDS011;11070;51.336;12.340;2022-09-09T14:40:04;1.70;;;1.10;;
2061;SDS011;11070;51.336;12.340;2022-09-09T14:42:30;2.70;;;1.13;;
2061;SDS011;11070;51.336;12.340;2022-09-09T14:44:56;3.00;;;1.30;;
2061;SDS011;11070;51.336;12.340;2022-09-09T14:47:21;4.17;;;1.37;;
2061;SDS011;11070;51.336;12.340;2022-09-09T14:49:47;2.50;;;1.10;;
2061;SDS011;11070;51.336;12.340;2022-09-09T14:52:14;2.35;;;1.10;;
2061;SDS011;11070;51.336;12.340;2022-09-09T14:54:41;1.08;;;0.98;;
2061;SDS011;11070;51.336;12.340;2022-09-09T14:57:07;1.50;;;0.93;;
2061;SDS011;11070;51.336;12.340;2022-09-09T14:59:32;2.40;;;1.07;;
2061;SDS011;11070;51.336;12.340;2022-09-09T15:01:59;1.33;;;0.98;;
2061;SDS011;11070;51.336;12.340;2022-09-09T15:04:29;2.17;;;1.00;;
2061;SDS011;11070;51.336;12.340;2022-09-09T15:06:54;1.57;;;1.37;;
2061;SDS011;11070;51.336;12.340;2022-09-09T15:09:20;1.40;;;1.23;;
2061;SDS011;11070;51.336;12.340;2022-09-09T15:11:46;1.53;;;1.00;;
2061;SDS011;11070;51.336;12.340;2022-09-09T15:14:12;3.00;;;1.10;;
2061;SDS011;11070;51.336;12.340;2022-09-09T15:16:38;1.30;;;1.00;;
2061;SDS011;11070;51.336;12.340;2022-09-09T15:19:04;1.73;;;0.90;;
2061;SDS011;11070;51.336;12.340;2022-09-09T15:21:31;1.77;;;1.10;;
2061;SDS011;11070;51.336;12.340;2022-09-09T15:23:58;2.10;;;1.00;;
2061;SDS011;11070;51.336;12.340;2022-09-09T15:26:25;2.40;;;0.80;;
2061;SDS011;11070;51.336;12.340;2022-09-09T15:28:52;1.80;;;0.87;;
2061;SDS011;11070;51.336;12.340;2022-09-09T15:31:19;1.77;;;1.00;;
2061;SDS011;11070;51.336;12.340;2022-09-09T15:33:50;1.23;;;0.80;;
2061;SDS011;11070;51.336;12.340;2022-09-09T15:36:18;1.20;;;0.80;;
2061;SDS011;11070;51.336;12.340;2022-09-09T15:38:46;1.00;;;0.83;;
2061;SDS011;11070;51.336;12.340;2022-09-09T15:41:13;3.43;;;1.03;;
2061;SDS011;11070;51.336;12.340;2022-09-09T15:43:39;1.93;;;1.00;;
2061;SDS011;11070;51.336;12.340;2022-09-09T15:48:52;2.40;;;1.03;;
2061;SDS011;11070;51.336;12.340;2022-09-09T15:51:19;1.20;;;0.80;;
2061;SDS011;11070;51.336;12.340;2022-09-09T15:53:45;1.50;;;0.80;;
2061;SDS011;11070;51.336;12.340;2022-09-09T15:56:12;2.17;;;1.00;;
2061;SDS011;11070;51.336;12.340;2022-09-09T15:58:38;1.80;;;1.20;;
2061;SDS011;11070;51.336;12.340;2022-09-09T16:01:07;5.70;;;1.30;;
2061;SDS011;11070;51.336;12.340;2022-09-09T16:03:37;3.23;;;1.00;;
2061;SDS011;11070;51.336;12.340;2022-09-09T16:06:06;1.63;;;0.90;;
2061;SDS011;11070;51.336;12.340;2022-09-09T16:08:36;1.53;;;1.03;;
2061;SDS011;11070;51.336;12.340;2022-09-09T16:11:04;2.75;;;1.00;;
2061;SDS011;11070;51.336;12.340;2022-09-09T16:13:37;3.75;;;1.17;;
2061;SDS011;11070;51.336;12.340;2022-09-09T16:16:07;2.38;;;1.40;;
2061;SDS011;11070;51.336;12.340;2022-09-09T16:18:35;2.13;;;1.10;;
2061;SDS011;11070;51.336;12.340;2022-09-09T16:21:02;2.83;;;1.15;;
2061;SDS011;11070;51.336;12.340;2022-09-09T16:23:42;3.73;;;1.30;;
2061;SDS011;11070;51.336;12.340;2022-09-09T16:26:10;1.55;;;1.13;;
2061;SDS011;11070;51.336;12.340;2022-09-09T16:28:49;1.20;;;1.00;;
2061;SDS011;11070;51.336;12.340;2022-09-09T16:31:18;1.60;;;1.45;;
2061;SDS011;11070;51.336;12.340;2022-09-09T16:33:45;1.00;;;0.90;;
2061;SDS011;11070;51.336;12.340;2022-09-09T16:36:15;3.58;;;1.10;;
2061;SDS011;11070;51.336;12.340;2022-09-09T16:38:45;2.35;;;1.20;;
2061;SDS011;11070;51.336;12.340;2022-09-09T16:41:12;1.63;;;1.13;;
2061;SDS011;11070;51.336;12.340;2022-09-09T16:43:39;2.35;;;1.15;;
2061;SDS011;11070;51.336;12.340;2022-09-09T16:46:13;2.65;;;1.30;;
2061;SDS011;11070;51.336;12.340;2022-09-09T16:48:43;2.78;;;1.25;;
2061;SDS011;11070;51.336;12.340;2022-09-09T16:51:14;1.58;;;1.42;;
2061;SDS011;11070;51.336;12.340;2022-09-09T16:53:45;1.33;;;1.08;;
2061;SDS011;11070;51.336;12.340;2022-09-09T16:56:18;2.47;;;1.70;;
2061;SDS011;11070;51.336;12.340;2022-09-09T16:58:49;1.27;;;1.17;;
2061;SDS011;11070;51.336;12.340;2022-09-09T17:01:23;2.22;;;1.50;;
2061;SDS011;11070;51.336;12.340;2022-09-09T17:03:58;2.67;;;1.52;;
2061;SDS011;11070;51.336;12.340;2022-09-09T17:06:29;3.17;;;1.20;;
2061;SDS011;11070;51.336;12.340;2022-09-09T17:08:57;1.85;;;1.42;;
2061;SDS011;11070;51.336;12.340;2022-09-09T17:11:28;1.80;;;1.70;;
2061;SDS011;11070;51.336;12.340;2022-09-09T17:13:55;3.88;;;2.00;;
2061;SDS011;11070;51.336;12.340;2022-09-09T17:16:24;3.25;;;1.77;;
2061;SDS011;11070;51.336;12.340;2022-09-09T17:18:53;3.15;;;1.90;;
2061;SDS011;11070;51.336;12.340;2022-09-09T17:21:23;1.40;;;1.30;;
2061;SDS011;11070;51.336;12.340;2022-09-09T17:23:52;2.05;;;1.55;;
2061;SDS011;11070;51.336;12.340;2022-09-09T17:26:20;1.60;;;1.40;;
2061;SDS011;11070;51.336;12.340;2022-09-09T17:28:47;5.35;;;1.95;;